• Join FlightAware (Why Join?)
  • Login
  • US Flag 
12:44AM EST


 

Airport Tracker/Info


-or-


 

Live Flight TrackerFlight Track Log ✈ SWA2436 ✈ 07-Apr-2013 ✈ KMSY - KHOU

Flight Track Log - Related Links

Times and Time Zones

All times are in EDT time to prevent confusion due to time zone crossing. See the SWA2436 flight status page for this flight to view local times or setup timezone preferences in your user account.

Time Position Orientation Groundspeed Altitude Reporting Facility
EDT Latitude Longitude Course Direction KTS MPH feet Rate Location/Type
10:42PM 29.9658 -90.2597 196° South 161 185 2,000  Level Houston Center
10:42PM 29.9475 -90.2742 214° Southwest 184 212 3,300 3,300 Climbing Houston Center
10:43PM 29.9428 -90.3194 263° West 257 296 5,400 4,080 Climbing Houston Center
10:43PM 29.9375 -90.3611 262° West 288 331 7,900 4,500 Climbing Houston Center
10:44PM 29.9342 -90.4064 265° West 268 308 10,000 2,580 Climbing Houston Center
10:45PM 29.9169 -90.5072 259° West 330 380 12,100 2,760 Climbing Houston Center
10:46PM 29.9008 -90.6292 261° West 381 438 15,600 3,540 Climbing Houston Center
10:47PM 29.8811 -90.7542 260° West 395 455 19,300 3,300 Climbing Houston Center
10:48PM 29.8625 -90.8833 261° West 411 473 22,400 2,820 Climbing Houston Center
10:49PM 29.8422 -91.0153 260° West 417 480 25,100 2,460 Climbing Houston Center
10:50PM 29.8214 -91.1517 260° West 432 497 27,500 2,700 Climbing Houston Center
10:51PM 29.8008 -91.2850 260° West 425 489 30,600 2,160 Climbing Houston Center
10:52PM 29.7769 -91.4414 260° West 415 478 32,000 660 Climbing Houston Center
10:53PM 29.7567 -91.5689 260° West 408 470 32,000  Level Houston Center
10:54PM 29.7375 -91.6983 260° West 410 472 32,000  Level Houston Center
10:55PM 29.7192 -91.8128 260° West 417 480 32,000  Level Houston Center
10:56PM 29.6947 -91.9686 260° West 415 478 32,000  Level Houston Center
10:57PM 29.6739 -92.1003 260° West 418 481 32,000  Level Houston Center
10:58PM 29.6517 -92.2322 259° West 421 484 32,000  Level Houston Center
10:59PM 29.6314 -92.3639 260° West 418 481 32,000  Level Houston Center
11:00PM 29.6097 -92.4969 259° West 423 487 32,000  Level Houston Center
11:01PM 29.5881 -92.6278 259° West 418 481 32,000  Level Houston Center
11:02PM 29.5661 -92.7594 259° West 419 482 32,000  Level Houston Center
11:03PM 29.5439 -92.8911 259° West 420 483 32,000  Level Houston Center
11:04PM 29.5231 -93.0228 260° West 419 482 32,000  Level Houston Center
11:05PM 29.5008 -93.1544 259° West 418 481 32,000  Level Houston Center
11:06PM 29.4778 -93.2864 259° West 420 483 32,000 -480 Level Houston Center
11:07PM 29.4547 -93.4192 259° West 422 486 31,100 -960 Descending Houston Center
11:08PM 29.4319 -93.5519 259° West 423 487 30,100 -1,020 Descending Houston Center
11:09PM 29.4092 -93.6856 259° West 426 490 29,100 -1,260 Descending Houston Center
11:10PM 29.3867 -93.8158 259° West 419 482 27,600 -2,280 Descending Houston Center
11:11PM 29.3706 -93.9103 259° West 411 473 25,600 -3,300 Descending Houston Center
11:11PM 29.3608 -93.9622 258° West 407 468 24,300 -3,000 Descending Houston Center
11:12PM 29.3506 -94.0236 259° West 408 470 22,900 -3,060 Descending Houston Center
11:12PM 29.3375 -94.0939 258° West 419 482 21,200 -2,880 Descending Houston Center
11:13PM 29.3275 -94.1489 258° West 416 479 20,000 -2,880 Descending Houston Center
11:13PM 29.3147 -94.2206 258° West 409 471 18,300 -3,060 Descending Houston Center
11:14PM 29.3050 -94.2789 259° West 395 455 16,900 -2,880 Descending Houston Center
11:14PM 29.2936 -94.3394 258° West 387 445 15,400 -2,940 Descending Houston Center
11:15PM 29.2828 -94.3944 257° West 370 426 14,000 -1,980 Descending Houston Center
11:16PM 29.2942 -94.4486 284° West 361 415 13,400 -1,140 Descending Houston Center
11:16PM 29.3217 -94.4903 307° West 337 388 12,900 -1,020 Descending Houston Center
11:17PM 29.3583 -94.5311 316° Northwest 351 404 12,400 -1,020 Descending Houston Center
11:17PM 29.3889 -94.5753 308° West 345 397 11,900 -1,020 Descending Houston Center
11:18PM 29.4203 -94.6150 312° West 345 397 11,400 -1,140 Descending Houston Center
11:18PM 29.4564 -94.6625 311° West 354 407 10,800 -1,140 Descending Houston Center
11:19PM 29.4856 -94.6983 313° West 351 404 10,300 -840 Descending Houston Center
11:19PM 29.5186 -94.7411 312° West 311 358 10,000 -1,020 Descending Houston Center
11:20PM 29.5419 -94.7711 312° West 312 359 9,300 -1,500 Descending Houston Center
11:20PM 29.5714 -94.8114 310° West 294 338 8,500 -1,500 Descending Houston Center
11:21PM 29.5969 -94.8411 315° West 299 344 7,800 -1,500 Descending Houston Center
11:21PM 29.6242 -94.8794 309° West 290 334 7,000 -1,320 Descending Houston Center
11:22PM 29.6489 -94.9097 313° West 290 334 6,500 -1,440 Descending Houston Center
11:22PM 29.6725 -94.9456 307° West 261 300 5,600 -1,980 Descending Houston Center
11:23PM 29.6933 -94.9747 309° West 270 311 4,500 -2,400 Descending Houston Center
11:23PM 29.7172 -95.0194 302° West 271 312 3,200 -2,100 Descending Houston Center
11:24PM 29.7433 -95.0578 308° West 266 306 2,400 -1,200 Descending Houston Center
11:24PM 29.7597 -95.0886 301° West 245 282 2,000 -420 Descending Houston Center
11:25PM 29.7706 -95.1228 290° West 251 289 2,000  Level Houston Center
11:25PM 29.7611 -95.1511 249° West 190 219 2,000  Level Houston Center
11:26PM 29.7450 -95.1692 224° Southwest 200 230 2,000  Level Houston Center
11:26PM 29.7286 -95.1839 218° Southwest 157 181 2,000 -300 Level Houston Center
11:27PM 29.7139 -95.2036 229° Southwest 172 198 1,700 -600 Descending Houston Center
11:27PM 29.7003 -95.2186 224° Southwest 149 171 1,400 -720 Descending Houston Center
11:28PM 29.6883 -95.2328 226° Southwest 143 165 1,000 -720 Descending Houston Center
11:28PM 29.6756 -95.2458 222° Southwest 118 136 700 -720 Descending Houston Center
11:29PM 29.6622 -95.2606 224° Southwest 133 153 300 -420 Descending Houston Center
11:30PM 29.6358 -95.2897 224° Southwest 133 153 100 -240 Descending Houston Center